sensor_id;sensor_type;location;lat;lon;timestamp;temperature;humidity
5520;DHT22;2782;52.362;10.012;2022-09-17T00:02:34;20.30;85.50
5520;DHT22;2782;52.362;10.012;2022-09-17T00:09:15;20.30;85.50
5520;DHT22;2782;52.362;10.012;2022-09-17T00:15:58;20.30;85.50
5520;DHT22;2782;52.362;10.012;2022-09-17T00:22:40;20.20;85.30
5520;DHT22;2782;52.362;10.012;2022-09-17T00:29:21;20.20;85.20
5520;DHT22;2782;52.362;10.012;2022-09-17T00:36:05;20.20;85.30
5520;DHT22;2782;52.362;10.012;2022-09-17T00:42:47;20.20;85.30
5520;DHT22;2782;52.362;10.012;2022-09-17T00:49:29;20.20;85.20
5520;DHT22;2782;52.362;10.012;2022-09-17T00:56:18;20.20;85.30
5520;DHT22;2782;52.362;10.012;2022-09-17T01:03:02;20.20;85.10
5520;DHT22;2782;52.362;10.012;2022-09-17T01:09:50;20.20;85.10
5520;DHT22;2782;52.362;10.012;2022-09-17T01:16:39;20.20;85.10
5520;DHT22;2782;52.362;10.012;2022-09-17T01:23:48;20.20;85.20
5520;DHT22;2782;52.362;10.012;2022-09-17T01:30:56;20.20;85.30
5520;DHT22;2782;52.362;10.012;2022-09-17T01:37:56;20.20;85.20
5520;DHT22;2782;52.362;10.012;2022-09-17T01:44:46;20.20;85.20
5520;DHT22;2782;52.362;10.012;2022-09-17T01:51:35;20.20;85.10
5520;DHT22;2782;52.362;10.012;2022-09-17T01:58:21;20.20;85.00
5520;DHT22;2782;52.362;10.012;2022-09-17T02:05:07;20.10;84.90
5520;DHT22;2782;52.362;10.012;2022-09-17T02:11:55;20.10;84.80
5520;DHT22;2782;52.362;10.012;2022-09-17T02:18:42;20.10;84.80
5520;DHT22;2782;52.362;10.012;2022-09-17T02:25:32;20.10;84.80
5520;DHT22;2782;52.362;10.012;2022-09-17T02:32:18;20.10;84.80
5520;DHT22;2782;52.362;10.012;2022-09-17T02:39:02;20.10;84.70
5520;DHT22;2782;52.362;10.012;2022-09-17T02:45:51;20.10;84.70
5520;DHT22;2782;52.362;10.012;2022-09-17T02:52:46;20.10;84.70
5520;DHT22;2782;52.362;10.012;2022-09-17T02:59:34;20.10;84.70
5520;DHT22;2782;52.362;10.012;2022-09-17T03:06:21;20.10;84.60
5520;DHT22;2782;52.362;10.012;2022-09-17T03:13:04;20.10;84.60
5520;DHT22;2782;52.362;10.012;2022-09-17T03:19:46;20.00;84.40
5520;DHT22;2782;52.362;10.012;2022-09-17T03:26:27;20.00;84.40
5520;DHT22;2782;52.362;10.012;2022-09-17T03:33:11;20.00;84.30
5520;DHT22;2782;52.362;10.012;2022-09-17T03:39:52;20.00;84.30
5520;DHT22;2782;52.362;10.012;2022-09-17T03:46:34;20.00;84.30
5520;DHT22;2782;52.362;10.012;2022-09-17T03:53:17;20.00;84.20
5520;DHT22;2782;52.362;10.012;2022-09-17T03:59:59;20.00;84.20
5520;DHT22;2782;52.362;10.012;2022-09-17T04:06:40;20.00;84.20
5520;DHT22;2782;52.362;10.012;2022-09-17T04:13:23;20.00;84.00
5520;DHT22;2782;52.362;10.012;2022-09-17T04:20:05;20.00;84.00
5520;DHT22;2782;52.362;10.012;2022-09-17T04:26:47;20.00;83.90
5520;DHT22;2782;52.362;10.012;2022-09-17T04:33:30;20.00;83.90
5520;DHT22;2782;52.362;10.012;2022-09-17T04:40:11;20.00;83.80
5520;DHT22;2782;52.362;10.012;2022-09-17T04:46:53;19.90;83.70
5520;DHT22;2782;52.362;10.012;2022-09-17T04:53:36;20.00;83.80
5520;DHT22;2782;52.362;10.012;2022-09-17T05:00:20;19.90;83.60
5520;DHT22;2782;52.362;10.012;2022-09-17T05:07:01;19.90;83.60
5520;DHT22;2782;52.362;10.012;2022-09-17T05:13:44;19.90;83.60
5520;DHT22;2782;52.362;10.012;2022-09-17T05:20:26;19.90;83.40
5520;DHT22;2782;52.362;10.012;2022-09-17T05:27:08;19.90;83.40
5520;DHT22;2782;52.362;10.012;2022-09-17T05:33:51;19.90;83.40
5520;DHT22;2782;52.362;10.012;2022-09-17T05:40:32;19.90;83.30
5520;DHT22;2782;52.362;10.012;2022-09-17T05:47:14;19.90;83.10
5520;DHT22;2782;52.362;10.012;2022-09-17T05:53:57;19.90;83.40
5520;DHT22;2782;52.362;10.012;2022-09-17T06:00:39;19.90;84.20
5520;DHT22;2782;52.362;10.012;2022-09-17T06:07:22;19.90;84.30
5520;DHT22;2782;52.362;10.012;2022-09-17T06:14:04;19.90;84.60
5520;DHT22;2782;52.362;10.012;2022-09-17T06:20:52;19.90;84.40
5520;DHT22;2782;52.362;10.012;2022-09-17T06:27:34;19.90;84.70
5520;DHT22;2782;52.362;10.012;2022-09-17T06:34:17;19.90;84.50
5520;DHT22;2782;52.362;10.012;2022-09-17T06:40:59;19.90;84.20
5520;DHT22;2782;52.362;10.012;2022-09-17T06:47:41;19.90;84.10
5520;DHT22;2782;52.362;10.012;2022-09-17T06:54:23;19.90;83.90
5520;DHT22;2782;52.362;10.012;2022-09-17T07:01:05;19.90;83.20
5520;DHT22;2782;52.362;10.012;2022-09-17T07:07:47;19.90;82.90
5520;DHT22;2782;52.362;10.012;2022-09-17T07:14:29;19.90;82.70
5520;DHT22;2782;52.362;10.012;2022-09-17T07:21:11;20.00;82.50
5520;DHT22;2782;52.362;10.012;2022-09-17T07:27:53;20.00;82.30
5520;DHT22;2782;52.362;10.012;2022-09-17T07:34:36;20.10;82.20
5520;DHT22;2782;52.362;10.012;2022-09-17T07:41:17;20.10;82.10
5520;DHT22;2782;52.362;10.012;2022-09-17T07:47:59;20.10;82.10
5520;DHT22;2782;52.362;10.012;2022-09-17T07:54:42;20.10;82.70
5520;DHT22;2782;52.362;10.012;2022-09-17T08:01:23;20.10;80.80
5520;DHT22;2782;52.362;10.012;2022-09-17T08:08:06;20.10;78.60
5520;DHT22;2782;52.362;10.012;2022-09-17T08:14:49;20.10;80.20
5520;DHT22;2782;52.362;10.012;2022-09-17T08:21:31;20.10;80.20
5520;DHT22;2782;52.362;10.012;2022-09-17T08:28:12;20.10;80.60
5520;DHT22;2782;52.362;10.012;2022-09-17T08:34:55;20.00;80.20
5520;DHT22;2782;52.362;10.012;2022-09-17T08:41:46;20.10;79.60
5520;DHT22;2782;52.362;10.012;2022-09-17T08:48:36;20.00;78.90
5520;DHT22;2782;52.362;10.012;2022-09-17T08:55:29;20.00;79.30
5520;DHT22;2782;52.362;10.012;2022-09-17T09:02:22;20.00;78.20
5520;DHT22;2782;52.362;10.012;2022-09-17T09:09:12;20.00;78.00
5520;DHT22;2782;52.362;10.012;2022-09-17T09:15:59;19.90;77.60
5520;DHT22;2782;52.362;10.012;2022-09-17T09:22:46;20.00;77.40
5520;DHT22;2782;52.362;10.012;2022-09-17T09:29:36;19.90;76.90
5520;DHT22;2782;52.362;10.012;2022-09-17T09:36:19;19.90;76.60
5520;DHT22;2782;52.362;10.012;2022-09-17T09:43:08;20.00;76.40
5520;DHT22;2782;52.362;10.012;2022-09-17T09:50:04;20.00;77.10
5520;DHT22;2782;52.362;10.012;2022-09-17T09:56:55;20.00;76.10
5520;DHT22;2782;52.362;10.012;2022-09-17T10:03:40;20.00;74.40
5520;DHT22;2782;52.362;10.012;2022-09-17T10:10:21;20.00;73.40
5520;DHT22;2782;52.362;10.012;2022-09-17T10:17:17;20.00;73.60
5520;DHT22;2782;52.362;10.012;2022-09-17T10:24:02;20.00;74.90
5520;DHT22;2782;52.362;10.012;2022-09-17T10:30:55;20.00;74.40
5520;DHT22;2782;52.362;10.012;2022-09-17T10:37:46;20.00;74.50
5520;DHT22;2782;52.362;10.012;2022-09-17T10:44:29;20.00;75.10
5520;DHT22;2782;52.362;10.012;2022-09-17T10:51:21;20.00;75.30
5520;DHT22;2782;52.362;10.012;2022-09-17T10:58:14;20.00;75.10
5520;DHT22;2782;52.362;10.012;2022-09-17T11:05:04;20.00;75.10
5520;DHT22;2782;52.362;10.012;2022-09-17T11:11:54;20.00;75.00
5520;DHT22;2782;52.362;10.012;2022-09-17T11:18:41;20.00;75.10
5520;DHT22;2782;52.362;10.012;2022-09-17T11:25:32;20.00;75.30
5520;DHT22;2782;52.362;10.012;2022-09-17T11:32:31;20.00;75.80
5520;DHT22;2782;52.362;10.012;2022-09-17T11:39:21;20.00;75.10
5520;DHT22;2782;52.362;10.012;2022-09-17T11:46:07;20.10;76.90
5520;DHT22;2782;52.362;10.012;2022-09-17T11:53:02;20.30;76.60
5520;DHT22;2782;52.362;10.012;2022-09-17T11:59:50;20.30;76.60
5520;DHT22;2782;52.362;10.012;2022-09-17T12:06:37;20.30;76.60
5520;DHT22;2782;52.362;10.012;2022-09-17T12:13:29;20.30;76.70
5520;DHT22;2782;52.362;10.012;2022-09-17T12:20:26;20.20;76.70
5520;DHT22;2782;52.362;10.012;2022-09-17T12:27:16;20.20;76.20
5520;DHT22;2782;52.362;10.012;2022-09-17T12:34:08;20.20;77.30
5520;DHT22;2782;52.362;10.012;2022-09-17T12:40:58;20.20;77.40
5520;DHT22;2782;52.362;10.012;2022-09-17T12:55:03;20.20;77.80
5520;DHT22;2782;52.362;10.012;2022-09-17T13:01:53;20.10;78.30
5520;DHT22;2782;52.362;10.012;2022-09-17T13:08:52;20.10;78.10
5520;DHT22;2782;52.362;10.012;2022-09-17T13:15:45;20.10;78.30
5520;DHT22;2782;52.362;10.012;2022-09-17T13:22:32;20.10;77.50
5520;DHT22;2782;52.362;10.012;2022-09-17T13:29:57;20.10;77.50
5520;DHT22;2782;52.362;10.012;2022-09-17T13:36:45;20.10;77.50
5520;DHT22;2782;52.362;10.012;2022-09-17T13:43:29;20.10;78.00
5520;DHT22;2782;52.362;10.012;2022-09-17T13:50:24;20.10;77.80
5520;DHT22;2782;52.362;10.012;2022-09-17T13:57:11;20.10;77.80
5520;DHT22;2782;52.362;10.012;2022-09-17T14:03:55;20.10;77.80
5520;DHT22;2782;52.362;10.012;2022-09-17T14:10:41;20.00;77.80
5520;DHT22;2782;52.362;10.012;2022-09-17T14:17:48;20.10;78.40
5520;DHT22;2782;52.362;10.012;2022-09-17T14:24:36;20.10;78.40
5520;DHT22;2782;52.362;10.012;2022-09-17T14:31:22;20.10;79.20
5520;DHT22;2782;52.362;10.012;2022-09-17T14:38:10;20.10;78.90
5520;DHT22;2782;52.362;10.012;2022-09-17T14:44:57;20.10;78.30
5520;DHT22;2782;52.362;10.012;2022-09-17T14:51:40;20.10;78.00
5520;DHT22;2782;52.362;10.012;2022-09-17T14:58:27;20.10;77.50
5520;DHT22;2782;52.362;10.012;2022-09-17T15:05:17;20.10;77.10
5520;DHT22;2782;52.362;10.012;2022-09-17T15:12:00;20.00;77.70
5520;DHT22;2782;52.362;10.012;2022-09-17T15:18:46;20.00;75.50
5520;DHT22;2782;52.362;10.012;2022-09-17T15:25:30;20.00;77.00
5520;DHT22;2782;52.362;10.012;2022-09-17T15:32:12;20.00;76.70
5520;DHT22;2782;52.362;10.012;2022-09-17T15:38:54;20.00;77.60
5520;DHT22;2782;52.362;10.012;2022-09-17T15:45:37;20.00;76.40
5520;DHT22;2782;52.362;10.012;2022-09-17T15:52:27;20.00;75.90
5520;DHT22;2782;52.362;10.012;2022-09-17T15:59:25;20.00;76.10
5520;DHT22;2782;52.362;10.012;2022-09-17T16:06:36;20.00;76.20
5520;DHT22;2782;52.362;10.012;2022-09-17T16:13:18;19.90;76.60
5520;DHT22;2782;52.362;10.012;2022-09-17T16:20:06;20.00;77.40
5520;DHT22;2782;52.362;10.012;2022-09-17T16:26:50;20.00;76.40
5520;DHT22;2782;52.362;10.012;2022-09-17T16:33:31;20.00;77.80
5520;DHT22;2782;52.362;10.012;2022-09-17T16:40:13;20.00;78.00
5520;DHT22;2782;52.362;10.012;2022-09-17T16:46:56;20.00;76.50
5520;DHT22;2782;52.362;10.012;2022-09-17T16:53:38;20.00;77.70
5520;DHT22;2782;52.362;10.012;2022-09-17T17:00:20;20.00;78.30
5520;DHT22;2782;52.362;10.012;2022-09-17T17:07:03;20.00;78.30
5520;DHT22;2782;52.362;10.012;2022-09-17T17:13:45;20.00;78.20
5520;DHT22;2782;52.362;10.012;2022-09-17T17:20:26;20.00;78.40
5520;DHT22;2782;52.362;10.012;2022-09-17T17:27:10;20.00;78.90
5520;DHT22;2782;52.362;10.012;2022-09-17T17:33:53;20.10;78.40
5520;DHT22;2782;52.362;10.012;2022-09-17T17:40:34;20.10;78.80
5520;DHT22;2782;52.362;10.012;2022-09-17T17:47:17;20.10;79.00
5520;DHT22;2782;52.362;10.012;2022-09-17T17:53:59;20.00;79.10
5520;DHT22;2782;52.362;10.012;2022-09-17T18:00:41;20.10;79.10
5520;DHT22;2782;52.362;10.012;2022-09-17T18:07:24;20.10;79.30
5520;DHT22;2782;52.362;10.012;2022-09-17T18:14:05;20.10;78.80
5520;DHT22;2782;52.362;10.012;2022-09-17T18:20:47;20.10;78.50
5520;DHT22;2782;52.362;10.012;2022-09-17T18:27:30;20.10;78.80
5520;DHT22;2782;52.362;10.012;2022-09-17T18:34:14;20.10;78.50
5520;DHT22;2782;52.362;10.012;2022-09-17T18:41:02;20.10;78.50
5520;DHT22;2782;52.362;10.012;2022-09-17T18:47:45;20.10;78.60
5520;DHT22;2782;52.362;10.012;2022-09-17T18:54:26;20.10;78.50
5520;DHT22;2782;52.362;10.012;2022-09-17T19:01:08;20.10;78.50
5520;DHT22;2782;52.362;10.012;2022-09-17T19:07:51;20.00;78.40
5520;DHT22;2782;52.362;10.012;2022-09-17T19:14:32;20.00;78.40
5520;DHT22;2782;52.362;10.012;2022-09-17T19:21:15;20.00;78.30
5520;DHT22;2782;52.362;10.012;2022-09-17T19:27:58;20.00;78.40
5520;DHT22;2782;52.362;10.012;2022-09-17T19:34:40;20.00;79.00
5520;DHT22;2782;52.362;10.012;2022-09-17T19:41:22;19.90;79.10
5520;DHT22;2782;52.362;10.012;2022-09-17T19:48:05;19.90;79.40
5520;DHT22;2782;52.362;10.012;2022-09-17T19:54:46;19.90;79.50
5520;DHT22;2782;52.362;10.012;2022-09-17T20:01:28;19.90;79.80
5520;DHT22;2782;52.362;10.012;2022-09-17T20:08:12;19.90;80.50
5520;DHT22;2782;52.362;10.012;2022-09-17T20:14:53;19.90;80.30
5520;DHT22;2782;52.362;10.012;2022-09-17T20:21:35;19.90;80.70
5520;DHT22;2782;52.362;10.012;2022-09-17T20:28:18;19.90;80.80
5520;DHT22;2782;52.362;10.012;2022-09-17T20:34:59;19.90;81.00
5520;DHT22;2782;52.362;10.012;2022-09-17T20:41:41;19.90;81.10
5520;DHT22;2782;52.362;10.012;2022-09-17T20:48:24;19.80;80.30
5520;DHT22;2782;52.362;10.012;2022-09-17T20:55:06;19.90;81.20
5520;DHT22;2782;52.362;10.012;2022-09-17T21:01:48;19.80;81.30
5520;DHT22;2782;52.362;10.012;2022-09-17T21:08:31;19.80;81.50
5520;DHT22;2782;52.362;10.012;2022-09-17T21:15:12;19.80;81.70
5520;DHT22;2782;52.362;10.012;2022-09-17T21:21:54;19.90;81.90
5520;DHT22;2782;52.362;10.012;2022-09-17T21:28:38;19.90;81.60
5520;DHT22;2782;52.362;10.012;2022-09-17T21:35:20;19.90;81.90
5520;DHT22;2782;52.362;10.012;2022-09-17T21:42:02;19.90;82.50
5520;DHT22;2782;52.362;10.012;2022-09-17T21:48:47;19.90;81.70
5520;DHT22;2782;52.362;10.012;2022-09-17T21:55:29;19.90;81.90
5520;DHT22;2782;52.362;10.012;2022-09-17T22:02:10;19.90;81.90
5520;DHT22;2782;52.362;10.012;2022-09-17T22:08:57;19.90;81.80
5520;DHT22;2782;52.362;10.012;2022-09-17T22:15:39;19.90;81.80
5520;DHT22;2782;52.362;10.012;2022-09-17T22:22:21;19.80;81.60
5520;DHT22;2782;52.362;10.012;2022-09-17T22:29:05;19.80;81.60
5520;DHT22;2782;52.362;10.012;2022-09-17T22:35:47;19.80;82.00
5520;DHT22;2782;52.362;10.012;2022-09-17T22:42:29;19.80;81.80
5520;DHT22;2782;52.362;10.012;2022-09-17T22:49:12;19.80;81.80
5520;DHT22;2782;52.362;10.012;2022-09-17T22:55:54;19.80;81.90
5520;DHT22;2782;52.362;10.012;2022-09-17T23:02:36;19.80;82.10
5520;DHT22;2782;52.362;10.012;2022-09-17T23:09:19;19.80;82.10
5520;DHT22;2782;52.362;10.012;2022-09-17T23:16:02;19.80;82.10
5520;DHT22;2782;52.362;10.012;2022-09-17T23:22:44;19.70;82.00
5520;DHT22;2782;52.362;10.012;2022-09-17T23:29:27;19.80;82.00
5520;DHT22;2782;52.362;10.012;2022-09-17T23:36:10;19.70;81.80
5520;DHT22;2782;52.362;10.012;2022-09-17T23:42:53;19.80;81.90
5520;DHT22;2782;52.362;10.012;2022-09-17T23:49:36;19.70;82.60
5520;DHT22;2782;52.362;10.012;2022-09-17T23:56:19;19.70;81.90
